createdAt,value
2022-09-20T00:00:14.488Z,10.30
2022-09-20T00:02:42.598Z,10.30
2022-09-20T00:05:10.852Z,10.30
2022-09-20T00:07:38.932Z,10.20
2022-09-20T00:10:10.221Z,10.20
2022-09-20T00:12:38.221Z,10.20
2022-09-20T00:15:07.038Z,10.20
2022-09-20T00:17:37.489Z,10.20
2022-09-20T00:20:09.187Z,10.10
2022-09-20T00:22:37.315Z,10.10
2022-09-20T00:25:09.585Z,10.10
2022-09-20T00:27:43.639Z,10.10
2022-09-20T00:30:13.903Z,10.10
2022-09-20T00:32:43.375Z,10.00
2022-09-20T00:35:13.272Z,10.00
2022-09-20T00:37:44.103Z,10.00
2022-09-20T00:40:20.478Z,10.00
2022-09-20T00:42:48.837Z,10.00
2022-09-20T00:45:24.420Z,10.00
2022-09-20T00:48:01.168Z,10.00
2022-09-20T00:50:34.822Z,9.90
2022-09-20T00:53:08.854Z,9.90
2022-09-20T00:55:45.556Z,9.90
2022-09-20T00:58:15.727Z,9.90
2022-09-20T01:00:48.019Z,9.90
2022-09-20T01:03:25.326Z,9.90
2022-09-20T01:05:55.889Z,9.90
2022-09-20T01:08:27.462Z,9.90
2022-09-20T01:10:55.719Z,9.90
2022-09-20T01:13:23.836Z,9.90
2022-09-20T01:15:58.664Z,9.90
2022-09-20T01:18:31.660Z,9.90
2022-09-20T01:21:01.703Z,9.90
2022-09-20T01:23:48.105Z,9.80
2022-09-20T01:26:54.747Z,9.80
2022-09-20T01:29:41.045Z,9.80
2022-09-20T01:32:17.590Z,9.80
2022-09-20T01:34:48.266Z,9.80
2022-09-20T01:37:25.695Z,9.80
2022-09-20T01:40:03.746Z,9.80
2022-09-20T01:42:36.705Z,9.80
2022-09-20T01:45:14.376Z,9.80
2022-09-20T01:47:54.471Z,9.80
2022-09-20T01:50:36.733Z,9.80
2022-09-20T01:53:49.291Z,9.80
2022-09-20T01:56:55.663Z,9.80
2022-09-20T01:59:51.192Z,9.80
2022-09-20T02:03:06.168Z,9.70
2022-09-20T02:06:07.580Z,9.70
2022-09-20T02:09:23.446Z,9.70
2022-09-20T02:12:17.793Z,9.70
2022-09-20T02:14:58.390Z,9.70
2022-09-20T02:17:35.425Z,9.60
2022-09-20T02:20:20.986Z,9.60
2022-09-20T02:23:14.429Z,9.60
2022-09-20T02:26:17.547Z,9.60
2022-09-20T02:28:56.883Z,9.50
2022-09-20T02:31:40.739Z,9.50
2022-09-20T02:34:29.275Z,9.50
2022-09-20T02:37:11.060Z,9.40
2022-09-20T02:39:55.238Z,9.40
2022-09-20T02:42:32.839Z,9.40
2022-09-20T02:45:08.748Z,9.30
2022-09-20T02:47:41.659Z,9.30
2022-09-20T02:50:29.954Z,9.30
2022-09-20T02:53:15.337Z,9.30
2022-09-20T02:55:57.577Z,9.20
2022-09-20T02:58:34.921Z,9.20
2022-09-20T03:01:14.316Z,9.20
2022-09-20T03:03:56.274Z,9.20
2022-09-20T03:06:41.167Z,9.20
2022-09-20T03:09:17.370Z,9.20
2022-09-20T03:11:56.962Z,9.20
2022-09-20T03:14:29.400Z,9.20
2022-09-20T03:17:08.047Z,9.20
2022-09-20T03:19:49.530Z,9.20
2022-09-20T03:22:29.755Z,9.20
2022-09-20T03:25:35.405Z,9.10
2022-09-20T03:28:27.695Z,9.10
2022-09-20T03:31:09.231Z,9.10
2022-09-20T03:33:48.950Z,9.00
2022-09-20T03:36:37.209Z,9.00
2022-09-20T03:39:41.965Z,9.00
2022-09-20T03:42:18.867Z,9.00
2022-09-20T03:45:16.615Z,9.00
2022-09-20T03:48:11.912Z,8.90
2022-09-20T03:50:56.112Z,8.90
2022-09-20T03:54:05.979Z,8.90
2022-09-20T03:57:02.566Z,8.90
2022-09-20T03:59:49.877Z,8.70
2022-09-20T04:02:37.463Z,8.70
2022-09-20T04:05:14.367Z,8.70
2022-09-20T04:07:56.946Z,8.70
2022-09-20T04:10:46.893Z,8.70
2022-09-20T04:13:36.199Z,8.70
2022-09-20T04:16:18.456Z,8.70
2022-09-20T04:18:57.029Z,8.60
2022-09-20T04:21:35.489Z,8.60
2022-09-20T04:24:13.813Z,8.60
2022-09-20T04:26:48.782Z,8.60
2022-09-20T04:29:36.228Z,8.60
2022-09-20T04:32:20.422Z,8.60
2022-09-20T04:35:12.325Z,8.60
2022-09-20T04:37:47.884Z,8.50
2022-09-20T04:40:29.728Z,8.50
2022-09-20T04:43:38.756Z,8.50
2022-09-20T04:46:41.312Z,8.50
2022-09-20T04:49:43.954Z,8.50
2022-09-20T04:52:46.885Z,8.40
2022-09-20T04:55:39.704Z,8.40
2022-09-20T04:58:39.549Z,8.40
2022-09-20T05:01:43.220Z,8.30
2022-09-20T05:04:47.700Z,8.30
2022-09-20T05:07:46.779Z,8.30
2022-09-20T05:10:53.179Z,8.20
2022-09-20T05:13:35.156Z,8.20
2022-09-20T05:16:06.814Z,8.20
2022-09-20T05:19:13.586Z,8.10
2022-09-20T05:22:38.833Z,8.10
2022-09-20T05:25:40.794Z,8.00
2022-09-20T05:28:15.899Z,8.00
2022-09-20T05:30:50.680Z,8.00
2022-09-20T05:33:25.912Z,8.00
2022-09-20T05:36:05.402Z,8.00
2022-09-20T05:38:48.705Z,8.00
2022-09-20T05:41:31.927Z,8.00
2022-09-20T05:44:09.966Z,8.10
2022-09-20T05:46:54.946Z,8.10
2022-09-20T05:49:37.146Z,8.10
2022-09-20T05:52:38.069Z,8.10
2022-09-20T05:55:22.089Z,8.20
2022-09-20T05:58:09.335Z,8.20
2022-09-20T06:00:49.354Z,8.20
2022-09-20T06:03:31.921Z,8.20
2022-09-20T06:06:05.811Z,8.20
2022-09-20T06:09:10.303Z,8.20
2022-09-20T06:11:58.154Z,8.20
2022-09-20T06:14:39.426Z,8.20
2022-09-20T06:17:20.516Z,8.30
2022-09-20T06:20:14.872Z,8.30
2022-09-20T06:22:47.246Z,8.40
2022-09-20T06:25:23.912Z,8.40
2022-09-20T06:27:58.870Z,8.40
2022-09-20T06:30:30.565Z,8.40
2022-09-20T06:33:14.355Z,8.40
2022-09-20T06:35:50.948Z,8.40
2022-09-20T06:38:57.342Z,8.40
2022-09-20T06:41:30.649Z,8.40
2022-09-20T06:43:59.765Z,8.40
2022-09-20T06:46:29.053Z,8.40
2022-09-20T06:49:03.854Z,8.40
2022-09-20T06:51:40.221Z,8.50
2022-09-20T06:54:18.447Z,8.50
2022-09-20T06:56:47.393Z,8.60
2022-09-20T06:59:18.891Z,8.70
2022-09-20T07:01:48.176Z,8.80
2022-09-20T07:04:18.564Z,8.90
2022-09-20T07:06:48.248Z,9.00
2022-09-20T07:09:16.869Z,9.20
2022-09-20T07:11:46.369Z,9.30
2022-09-20T07:14:15.579Z,9.40
2022-09-20T07:16:43.728Z,9.50
2022-09-20T07:19:15.024Z,9.60
2022-09-20T07:21:43.163Z,9.70
2022-09-20T07:24:16.052Z,9.70
2022-09-20T07:26:56.841Z,9.80
2022-09-20T07:29:25.248Z,9.90
2022-09-20T07:31:55.936Z,10.00
2022-09-20T07:34:24.211Z,10.10
2022-09-20T07:36:52.358Z,10.10
2022-09-20T07:39:25.091Z,10.10
2022-09-20T07:41:53.183Z,10.20
2022-09-20T07:44:27.982Z,10.30
2022-09-20T07:46:58.371Z,10.40
2022-09-20T07:49:27.602Z,10.50
2022-09-20T07:51:55.819Z,10.60
2022-09-20T07:54:27.666Z,10.60
2022-09-20T07:56:56.750Z,10.70
2022-09-20T07:59:28.395Z,10.70
2022-09-20T08:01:58.871Z,10.80
2022-09-20T08:04:27.412Z,10.80
2022-09-20T08:06:55.522Z,10.90
2022-09-20T08:09:24.955Z,10.90
2022-09-20T08:11:56.444Z,11.00
2022-09-20T08:14:25.181Z,11.00
2022-09-20T08:16:58.317Z,11.10
2022-09-20T08:19:30.611Z,11.10
2022-09-20T08:21:58.686Z,11.20
2022-09-20T08:24:31.639Z,11.30
2022-09-20T08:26:59.720Z,11.30
2022-09-20T08:29:27.820Z,11.40
2022-09-20T08:31:58.225Z,11.50
2022-09-20T08:34:26.514Z,11.50
2022-09-20T08:36:57.407Z,11.60
2022-09-20T08:42:27.192Z,11.80
2022-09-20T08:45:01.235Z,11.80
2022-09-20T08:47:31.443Z,11.90
2022-09-20T08:50:16.830Z,12.00
2022-09-20T08:52:50.464Z,12.00
2022-09-20T08:55:22.107Z,12.10
2022-09-20T08:57:57.190Z,12.20
2022-09-20T09:00:27.778Z,12.20
2022-09-20T09:02:57.638Z,12.20
2022-09-20T09:05:36.614Z,12.20
2022-09-20T09:08:10.630Z,12.30
2022-09-20T09:10:54.732Z,12.30
2022-09-20T09:13:29.433Z,12.40
2022-09-20T09:16:07.664Z,12.50
2022-09-20T09:18:40.188Z,12.60
2022-09-20T09:21:10.474Z,12.60
2022-09-20T09:23:42.438Z,12.70
2022-09-20T09:26:21.164Z,12.80
2022-09-20T09:29:22.925Z,12.80
2022-09-20T09:31:52.464Z,12.80
2022-09-20T09:34:30.424Z,12.90
2022-09-20T09:36:59.268Z,12.90
2022-09-20T09:39:32.014Z,12.90
2022-09-20T09:42:02.032Z,13.00
2022-09-20T09:44:34.234Z,13.10
2022-09-20T09:47:02.780Z,13.20
2022-09-20T09:49:36.388Z,13.20
2022-09-20T09:52:08.183Z,13.20
2022-09-20T09:54:38.775Z,13.20
2022-09-20T09:57:28.366Z,13.20
2022-09-20T10:00:16.318Z,13.20
2022-09-20T10:03:08.908Z,13.30
2022-09-20T10:05:44.422Z,13.30
2022-09-20T10:08:24.666Z,13.30
2022-09-20T10:11:15.082Z,13.40
2022-09-20T10:13:53.114Z,13.40
2022-09-20T10:16:32.215Z,13.50
2022-09-20T10:19:11.202Z,13.50
2022-09-20T10:21:50.926Z,13.60
2022-09-20T10:24:33.017Z,13.70
2022-09-20T10:27:24.262Z,13.70
2022-09-20T10:30:03.967Z,13.80
2022-09-20T10:32:55.158Z,13.90
2022-09-20T10:35:27.574Z,14.00
2022-09-20T10:38:15.927Z,14.10
2022-09-20T10:41:18.692Z,14.10
2022-09-20T10:44:09.526Z,14.20
2022-09-20T10:46:53.107Z,14.40
2022-09-20T10:49:32.925Z,14.50
2022-09-20T10:52:17.878Z,14.60
2022-09-20T10:55:03.606Z,14.80
2022-09-20T10:58:03.348Z,14.90
2022-09-20T11:00:42.535Z,14.90
2022-09-20T11:03:25.886Z,15.00
2022-09-20T11:06:11.461Z,15.00
2022-09-20T11:08:50.823Z,15.00
2022-09-20T11:11:25.572Z,15.20
2022-09-20T11:14:02.788Z,15.30
2022-09-20T11:16:40.805Z,15.30
2022-09-20T11:19:23.793Z,15.50
2022-09-20T11:22:01.291Z,15.50
2022-09-20T11:24:37.600Z,15.60
2022-09-20T11:27:19.900Z,15.70
2022-09-20T11:29:53.153Z,15.70
2022-09-20T11:32:26.086Z,15.80
2022-09-20T11:35:02.367Z,15.90
2022-09-20T11:37:37.142Z,15.90
2022-09-20T11:40:18.649Z,16.10
2022-09-20T11:42:51.130Z,16.10
2022-09-20T11:45:20.078Z,16.30
2022-09-20T11:47:55.767Z,16.40
2022-09-20T11:50:45.761Z,16.40
2022-09-20T11:53:35.871Z,16.50
2022-09-20T11:56:08.774Z,16.60
2022-09-20T11:58:48.402Z,16.60
2022-09-20T12:01:28.637Z,16.70
2022-09-20T12:04:20.623Z,16.70
2022-09-20T12:06:52.005Z,16.80
2022-09-20T12:09:26.820Z,16.90
2022-09-20T12:11:57.963Z,16.90
2022-09-20T12:14:28.030Z,16.90
2022-09-20T12:16:59.123Z,16.90
2022-09-20T12:19:40.106Z,16.90
2022-09-20T12:22:31.455Z,17.00
2022-09-20T12:25:42.092Z,17.10
2022-09-20T12:28:17.345Z,17.20
2022-09-20T12:30:45.455Z,17.20
2022-09-20T12:33:21.320Z,17.20
2022-09-20T12:36:17.425Z,17.20
2022-09-20T12:39:01.464Z,17.20
2022-09-20T12:41:44.888Z,17.40
2022-09-20T12:44:34.692Z,17.50
2022-09-20T12:47:06.494Z,17.60
2022-09-20T12:49:59.910Z,17.60
2022-09-20T12:53:09.069Z,17.70
2022-09-20T12:55:52.783Z,17.80
2022-09-20T12:58:28.589Z,17.80
2022-09-20T13:01:36.045Z,17.90
2022-09-20T13:04:37.882Z,18.00
2022-09-20T13:07:34.241Z,18.10
2022-09-20T13:10:07.785Z,18.10
2022-09-20T13:12:44.428Z,18.10
2022-09-20T13:15:18.238Z,18.00
2022-09-20T13:17:50.238Z,18.00
2022-09-20T13:20:25.807Z,18.00
2022-09-20T13:22:59.570Z,18.00
2022-09-20T13:25:34.504Z,17.90
2022-09-20T13:28:21.479Z,17.80
2022-09-20T13:30:49.863Z,17.80
2022-09-20T13:33:24.123Z,17.80
2022-09-20T13:35:57.164Z,17.70
2022-09-20T13:38:30.006Z,17.80
2022-09-20T13:41:09.191Z,17.70
2022-09-20T13:43:43.713Z,17.80
2022-09-20T13:46:16.463Z,17.80
2022-09-20T13:48:47.408Z,17.90
2022-09-20T13:51:20.170Z,18.00
2022-09-20T13:53:48.546Z,18.00
2022-09-20T13:56:26.574Z,18.10
2022-09-20T13:58:58.913Z,18.10
2022-09-20T14:01:34.628Z,18.10
2022-09-20T14:04:08.336Z,18.10
2022-09-20T14:06:37.088Z,18.20
2022-09-20T14:09:11.359Z,18.10
2022-09-20T14:11:41.008Z,18.10
2022-09-20T14:14:19.878Z,18.10
2022-09-20T14:16:53.363Z,18.10
2022-09-20T14:19:28.090Z,18.10
2022-09-20T14:21:57.941Z,18.10
2022-09-20T14:24:33.016Z,18.10
2022-09-20T14:27:04.276Z,18.20
2022-09-20T14:29:44.855Z,18.20
2022-09-20T14:32:27.699Z,18.20
2022-09-20T14:35:04.619Z,18.30
2022-09-20T14:37:36.083Z,18.40
2022-09-20T14:40:11.560Z,18.40
2022-09-20T14:42:44.629Z,18.30
2022-09-20T14:45:24.244Z,18.40
2022-09-20T14:47:58.607Z,18.30
2022-09-20T14:50:29.336Z,18.30
2022-09-20T14:53:19.644Z,18.20
2022-09-20T14:55:58.153Z,18.20
2022-09-20T14:58:27.797Z,18.20
2022-09-20T15:01:04.010Z,18.20
2022-09-20T15:03:34.107Z,18.20
2022-09-20T15:06:02.218Z,18.20
2022-09-20T15:08:30.352Z,18.20
2022-09-20T15:11:00.548Z,18.20
2022-09-20T15:13:28.676Z,18.20
2022-09-20T15:15:59.345Z,18.20
2022-09-20T15:18:30.451Z,18.30
2022-09-20T15:21:01.792Z,18.20
2022-09-20T15:23:29.893Z,18.30
2022-09-20T15:25:58.226Z,18.30
2022-09-20T15:28:26.825Z,18.30
2022-09-20T15:30:55.228Z,18.30
2022-09-20T15:33:24.692Z,18.20
2022-09-20T15:35:53.119Z,18.30
2022-09-20T15:38:22.627Z,18.20
2022-09-20T15:40:51.258Z,18.20
2022-09-20T15:43:26.294Z,18.20
2022-09-20T15:45:56.214Z,18.10
2022-09-20T15:48:30.218Z,18.10
2022-09-20T15:51:07.351Z,18.00
2022-09-20T15:53:36.726Z,18.00
2022-09-20T15:56:15.269Z,18.00
2022-09-20T15:58:47.188Z,18.00
2022-09-20T16:01:16.899Z,17.90
2022-09-20T16:03:48.968Z,17.90
2022-09-20T16:06:17.458Z,17.80
2022-09-20T16:08:45.528Z,17.80
2022-09-20T16:11:19.270Z,17.70
2022-09-20T16:13:54.392Z,17.70
2022-09-20T16:16:28.661Z,17.60
2022-09-20T16:19:15.551Z,17.60
2022-09-20T16:21:53.575Z,17.60
2022-09-20T16:24:28.635Z,17.50
2022-09-20T16:26:57.081Z,17.40
2022-09-20T16:29:25.918Z,17.40
2022-09-20T16:31:55.416Z,17.30
2022-09-20T16:34:31.771Z,17.30
2022-09-20T16:37:01.037Z,17.20
2022-09-20T16:39:30.368Z,17.10
2022-09-20T16:42:04.450Z,17.10
2022-09-20T16:44:32.945Z,17.00
2022-09-20T16:47:03.443Z,16.90
2022-09-20T16:49:32.894Z,16.80
2022-09-20T16:52:00.974Z,16.80
2022-09-20T16:54:31.952Z,16.70
2022-09-20T16:57:00.442Z,16.60
2022-09-20T16:59:31.922Z,16.60
2022-09-20T17:02:00.160Z,16.50
2022-09-20T17:04:34.224Z,16.40
2022-09-20T17:07:03.723Z,16.30
2022-09-20T17:09:34.665Z,16.20
2022-09-20T17:12:04.315Z,16.20
2022-09-20T17:14:32.403Z,16.10
2022-09-20T17:17:00.447Z,16.00
2022-09-20T17:19:28.832Z,15.90
2022-09-20T17:21:57.221Z,15.80
2022-09-20T17:24:30.600Z,15.80
2022-09-20T17:26:59.161Z,15.70
2022-09-20T17:29:27.724Z,15.60
2022-09-20T17:31:59.904Z,15.60
2022-09-20T17:34:29.666Z,15.50
2022-09-20T17:37:01.674Z,15.40
2022-09-20T17:39:31.257Z,15.30
2022-09-20T17:42:02.475Z,15.30
2022-09-20T17:44:33.400Z,15.20
2022-09-20T17:47:01.445Z,15.10
2022-09-20T17:49:31.366Z,15.10
2022-09-20T17:51:59.582Z,15.00
2022-09-20T17:54:27.649Z,15.00
2022-09-20T17:56:57.083Z,14.90
2022-09-20T17:59:25.689Z,14.80
2022-09-20T18:01:57.450Z,14.80
2022-09-20T18:04:25.590Z,14.80
2022-09-20T18:06:55.002Z,14.70
2022-09-20T18:09:24.831Z,14.70
2022-09-20T18:11:54.958Z,14.60
2022-09-20T18:14:25.858Z,14.60
2022-09-20T18:17:00.860Z,14.50
2022-09-20T18:19:34.705Z,14.50
2022-09-20T18:22:04.115Z,14.40
2022-09-20T18:24:32.532Z,14.30
2022-09-20T18:27:04.537Z,14.30
2022-09-20T18:29:36.716Z,14.20
2022-09-20T18:32:05.524Z,14.20
2022-09-20T18:34:34.263Z,14.10
2022-09-20T18:37:03.854Z,14.10
2022-09-20T18:39:37.683Z,14.00
2022-09-20T18:42:07.728Z,13.90
2022-09-20T18:44:37.557Z,13.80
2022-09-20T18:47:06.606Z,13.70
2022-09-20T18:49:35.070Z,13.70
2022-09-20T18:52:06.086Z,13.60
2022-09-20T18:54:34.408Z,13.50
2022-09-20T18:57:06.990Z,13.50
2022-09-20T18:59:37.179Z,13.50
2022-09-20T19:02:18.985Z,13.50
2022-09-20T19:05:08.511Z,13.40
2022-09-20T19:07:52.478Z,13.40
2022-09-20T19:10:33.790Z,13.30
2022-09-20T19:13:18.163Z,13.20
2022-09-20T19:16:06.665Z,13.20
2022-09-20T19:19:03.843Z,13.20
2022-09-20T19:21:43.577Z,13.10
2022-09-20T19:24:29.252Z,13.10
2022-09-20T19:26:57.613Z,13.10
2022-09-20T19:29:28.464Z,13.00
2022-09-20T19:32:00.890Z,13.00
2022-09-20T19:34:31.149Z,13.00
2022-09-20T19:37:11.011Z,12.90
2022-09-20T19:39:53.683Z,12.70
2022-09-20T19:42:36.150Z,12.70
2022-09-20T19:45:17.280Z,12.60
2022-09-20T19:47:52.259Z,12.60
2022-09-20T19:50:29.471Z,12.60
2022-09-20T19:52:57.966Z,12.50
2022-09-20T19:55:26.760Z,12.50
2022-09-20T19:57:55.736Z,12.50
2022-09-20T20:00:27.837Z,12.50
2022-09-20T20:02:57.924Z,12.50
2022-09-20T20:05:30.718Z,12.40
2022-09-20T20:08:15.256Z,12.40
2022-09-20T20:10:55.894Z,12.40
2022-09-20T20:13:49.922Z,12.30
2022-09-20T20:16:25.241Z,12.20
2022-09-20T20:19:07.326Z,12.20
2022-09-20T20:21:47.631Z,12.10
2022-09-20T20:24:30.478Z,12.10
2022-09-20T20:26:58.567Z,12.10
2022-09-20T20:29:26.678Z,12.00
2022-09-20T20:31:57.900Z,12.00
2022-09-20T20:34:27.602Z,12.00
2022-09-20T20:37:00.376Z,11.90
2022-09-20T20:39:31.614Z,11.90
2022-09-20T20:42:02.292Z,11.90
2022-09-20T20:44:31.136Z,11.90
2022-09-20T20:47:01.486Z,11.80
2022-09-20T20:49:31.013Z,11.80
2022-09-20T20:51:59.700Z,11.80
2022-09-20T20:54:30.224Z,11.70
2022-09-20T20:56:58.656Z,11.70
2022-09-20T20:59:27.707Z,11.70
2022-09-20T21:01:56.319Z,11.60
2022-09-20T21:04:25.366Z,11.60
2022-09-20T21:06:58.333Z,11.60
2022-09-20T21:09:26.498Z,11.60
2022-09-20T21:11:56.918Z,11.60
2022-09-20T21:14:25.074Z,11.50
2022-09-20T21:16:53.269Z,11.50
2022-09-20T21:19:23.005Z,11.50
2022-09-20T21:21:51.090Z,11.40
2022-09-20T21:24:26.389Z,11.40
2022-09-20T21:26:54.497Z,11.40
2022-09-20T21:29:22.647Z,11.30
2022-09-20T21:31:50.801Z,11.30
2022-09-20T21:34:20.885Z,11.20
2022-09-20T21:36:49.036Z,11.20
2022-09-20T21:39:17.114Z,11.20
2022-09-20T21:41:49.383Z,11.20
2022-09-20T21:44:17.718Z,11.20
2022-09-20T21:46:50.050Z,11.20
2022-09-20T21:49:18.145Z,11.20
2022-09-20T21:51:49.123Z,11.10
2022-09-20T21:54:17.223Z,11.10
2022-09-20T21:56:45.332Z,11.10
2022-09-20T21:59:14.747Z,11.10
2022-09-20T22:01:42.818Z,11.00
2022-09-20T22:04:12.720Z,11.00
2022-09-20T22:06:45.713Z,11.00
2022-09-20T22:09:15.649Z,10.90
2022-09-20T22:11:45.490Z,10.90
2022-09-20T22:14:20.200Z,10.80
2022-09-20T22:16:51.211Z,10.80
2022-09-20T22:19:20.368Z,10.80
2022-09-20T22:21:51.024Z,10.70
2022-09-20T22:24:22.156Z,10.70
2022-09-20T22:26:53.622Z,10.70
2022-09-20T22:29:25.968Z,10.60
2022-09-20T22:31:54.092Z,10.60
2022-09-20T22:34:25.303Z,10.60
2022-09-20T22:36:53.903Z,10.60
2022-09-20T22:39:26.277Z,10.50
2022-09-20T22:41:54.710Z,10.50
2022-09-20T22:44:22.784Z,10.50
2022-09-20T22:46:52.339Z,10.40
2022-09-20T22:49:20.519Z,10.40
2022-09-20T22:51:49.600Z,10.40
2022-09-20T22:54:20.747Z,10.40
2022-09-20T22:56:48.796Z,10.30
2022-09-20T22:59:23.155Z,10.20
2022-09-20T23:01:53.608Z,10.20
2022-09-20T23:04:24.720Z,10.20
2022-09-20T23:06:55.552Z,10.20
2022-09-20T23:09:28.454Z,10.10
2022-09-20T23:11:56.523Z,10.10
2022-09-20T23:14:24.967Z,10.10
2022-09-20T23:16:55.587Z,10.00
2022-09-20T23:19:25.182Z,10.00
2022-09-20T23:21:56.035Z,10.00
2022-09-20T23:24:24.142Z,10.00
2022-09-20T23:26:54.443Z,10.00
2022-09-20T23:29:22.647Z,9.90
2022-09-20T23:31:50.676Z,9.90
2022-09-20T23:34:23.021Z,9.90
2022-09-20T23:36:54.346Z,9.80
2022-09-20T23:39:22.493Z,9.80
2022-09-20T23:41:51.352Z,9.70
2022-09-20T23:44:20.224Z,9.70
2022-09-20T23:46:48.352Z,9.70
2022-09-20T23:49:16.470Z,9.70
2022-09-20T23:51:45.951Z,9.60
2022-09-20T23:54:13.999Z,9.60
2022-09-20T23:56:44.803Z,9.60
2022-09-20T23:59:12.906Z,9.60
